sensor_id;sensor_type;location;lat;lon;timestamp;P1;durP1;ratioP1;P2;durP2;ratioP2
4957;SDS011;2494;51.872;9.688;2023-06-24T00:00:06;16.30;;;6.57;;
4957;SDS011;2494;51.872;9.688;2023-06-24T00:02:55;8.77;;;6.83;;
4957;SDS011;2494;51.872;9.688;2023-06-24T00:05:41;11.20;;;6.87;;
4957;SDS011;2494;51.872;9.688;2023-06-24T00:08:26;8.60;;;7.83;;
4957;SDS011;2494;51.872;9.688;2023-06-24T00:11:18;6.77;;;5.77;;
4957;SDS011;2494;51.872;9.688;2023-06-24T00:17:16;9.23;;;6.73;;
4957;SDS011;2494;51.872;9.688;2023-06-24T00:20:03;10.07;;;6.70;;
4957;SDS011;2494;51.872;9.688;2023-06-24T00:22:52;5.93;;;5.40;;
4957;SDS011;2494;51.872;9.688;2023-06-24T00:25:43;10.33;;;5.67;;
4957;SDS011;2494;51.872;9.688;2023-06-24T00:28:32;10.50;;;6.00;;
4957;SDS011;2494;51.872;9.688;2023-06-24T00:31:20;5.57;;;5.07;;
4957;SDS011;2494;51.872;9.688;2023-06-24T00:34:14;13.00;;;6.40;;
4957;SDS011;2494;51.872;9.688;2023-06-24T00:37:00;10.97;;;6.30;;
4957;SDS011;2494;51.872;9.688;2023-06-24T00:39:48;8.93;;;5.93;;
4957;SDS011;2494;51.872;9.688;2023-06-24T00:42:34;7.17;;;5.40;;
4957;SDS011;2494;51.872;9.688;2023-06-24T00:45:20;7.00;;;5.47;;
4957;SDS011;2494;51.872;9.688;2023-06-24T00:48:05;12.20;;;6.07;;
4957;SDS011;2494;51.872;9.688;2023-06-24T00:50:53;5.90;;;5.00;;
4957;SDS011;2494;51.872;9.688;2023-06-24T00:53:42;9.80;;;5.03;;
4957;SDS011;2494;51.872;9.688;2023-06-24T00:56:29;7.60;;;6.07;;
4957;SDS011;2494;51.872;9.688;2023-06-24T00:59:15;12.63;;;6.80;;
4957;SDS011;2494;51.872;9.688;2023-06-24T01:02:01;10.10;;;7.63;;
4957;SDS011;2494;51.872;9.688;2023-06-24T01:04:48;6.23;;;5.63;;
4957;SDS011;2494;51.872;9.688;2023-06-24T01:07:37;10.90;;;6.80;;
4957;SDS011;2494;51.872;9.688;2023-06-24T01:10:24;6.83;;;5.63;;
4957;SDS011;2494;51.872;9.688;2023-06-24T01:13:10;14.13;;;5.07;;
4957;SDS011;2494;51.872;9.688;2023-06-24T01:15:55;6.00;;;5.23;;
4957;SDS011;2494;51.872;9.688;2023-06-24T01:18:43;7.90;;;6.63;;
4957;SDS011;2494;51.872;9.688;2023-06-24T01:21:33;9.20;;;5.50;;
4957;SDS011;2494;51.872;9.688;2023-06-24T01:24:34;12.63;;;6.30;;
4957;SDS011;2494;51.872;9.688;2023-06-24T01:33:46;7.20;;;5.03;;
4957;SDS011;2494;51.872;9.688;2023-06-24T01:36:33;9.57;;;4.30;;
4957;SDS011;2494;51.872;9.688;2023-06-24T01:39:20;6.20;;;5.67;;
4957;SDS011;2494;51.872;9.688;2023-06-24T01:42:08;6.50;;;5.60;;
4957;SDS011;2494;51.872;9.688;2023-06-24T01:44:55;7.13;;;4.47;;
4957;SDS011;2494;51.872;9.688;2023-06-24T01:47:43;6.83;;;5.67;;
4957;SDS011;2494;51.872;9.688;2023-06-24T01:50:32;8.90;;;5.63;;
4957;SDS011;2494;51.872;9.688;2023-06-24T01:53:19;7.10;;;6.00;;
4957;SDS011;2494;51.872;9.688;2023-06-24T01:56:05;9.40;;;5.63;;
4957;SDS011;2494;51.872;9.688;2023-06-24T01:58:52;10.70;;;6.10;;
4957;SDS011;2494;51.872;9.688;2023-06-24T02:01:38;19.27;;;5.87;;
4957;SDS011;2494;51.872;9.688;2023-06-24T02:04:26;6.20;;;5.70;;
4957;SDS011;2494;51.872;9.688;2023-06-24T02:07:16;7.30;;;6.40;;
4957;SDS011;2494;51.872;9.688;2023-06-24T02:10:03;11.00;;;7.40;;
4957;SDS011;2494;51.872;9.688;2023-06-24T02:12:49;11.07;;;7.10;;
4957;SDS011;2494;51.872;9.688;2023-06-24T02:15:35;10.30;;;6.70;;
4957;SDS011;2494;51.872;9.688;2023-06-24T02:18:21;7.23;;;6.10;;
4957;SDS011;2494;51.872;9.688;2023-06-24T02:21:07;7.40;;;5.73;;
4957;SDS011;2494;51.872;9.688;2023-06-24T02:23:54;5.83;;;5.30;;
4957;SDS011;2494;51.872;9.688;2023-06-24T02:26:40;7.00;;;4.80;;
4957;SDS011;2494;51.872;9.688;2023-06-24T02:29:26;11.20;;;5.67;;
4957;SDS011;2494;51.872;9.688;2023-06-24T02:32:13;8.57;;;5.63;;
4957;SDS011;2494;51.872;9.688;2023-06-24T02:34:58;8.97;;;5.40;;
4957;SDS011;2494;51.872;9.688;2023-06-24T02:37:43;9.53;;;7.47;;
4957;SDS011;2494;51.872;9.688;2023-06-24T02:40:31;12.13;;;6.80;;
4957;SDS011;2494;51.872;9.688;2023-06-24T02:43:17;21.03;;;6.97;;
4957;SDS011;2494;51.872;9.688;2023-06-24T02:46:02;7.97;;;6.77;;
4957;SDS011;2494;51.872;9.688;2023-06-24T02:48:49;12.80;;;6.50;;
4957;SDS011;2494;51.872;9.688;2023-06-24T02:51:35;18.23;;;6.70;;
4957;SDS011;2494;51.872;9.688;2023-06-24T02:54:22;8.80;;;6.20;;
4957;SDS011;2494;51.872;9.688;2023-06-24T02:57:08;8.60;;;6.83;;
4957;SDS011;2494;51.872;9.688;2023-06-24T02:59:53;10.83;;;8.30;;
4957;SDS011;2494;51.872;9.688;2023-06-24T03:02:38;6.87;;;6.10;;
4957;SDS011;2494;51.872;9.688;2023-06-24T03:05:24;6.67;;;6.10;;
4957;SDS011;2494;51.872;9.688;2023-06-24T03:08:09;10.27;;;6.10;;
4957;SDS011;2494;51.872;9.688;2023-06-24T03:10:56;8.63;;;5.63;;
4957;SDS011;2494;51.872;9.688;2023-06-24T03:13:47;6.60;;;6.00;;
4957;SDS011;2494;51.872;9.688;2023-06-24T03:16:33;6.50;;;5.80;;
4957;SDS011;2494;51.872;9.688;2023-06-24T03:19:18;11.50;;;5.40;;
4957;SDS011;2494;51.872;9.688;2023-06-24T03:22:04;5.93;;;5.30;;
4957;SDS011;2494;51.872;9.688;2023-06-24T03:24:49;6.37;;;5.63;;
4957;SDS011;2494;51.872;9.688;2023-06-24T03:27:35;7.50;;;6.90;;
4957;SDS011;2494;51.872;9.688;2023-06-24T03:30:23;6.93;;;6.23;;
4957;SDS011;2494;51.872;9.688;2023-06-24T03:33:08;9.17;;;6.27;;
4957;SDS011;2494;51.872;9.688;2023-06-24T03:35:53;6.77;;;6.17;;
4957;SDS011;2494;51.872;9.688;2023-06-24T03:38:39;6.97;;;5.50;;
4957;SDS011;2494;51.872;9.688;2023-06-24T03:41:24;7.80;;;7.07;;
4957;SDS011;2494;51.872;9.688;2023-06-24T03:44:10;5.83;;;5.30;;
4957;SDS011;2494;51.872;9.688;2023-06-24T03:46:58;6.13;;;5.63;;
4957;SDS011;2494;51.872;9.688;2023-06-24T03:49:44;8.83;;;6.87;;
4957;SDS011;2494;51.872;9.688;2023-06-24T03:52:29;7.67;;;5.93;;
4957;SDS011;2494;51.872;9.688;2023-06-24T03:55:14;10.63;;;5.57;;
4957;SDS011;2494;51.872;9.688;2023-06-24T03:57:59;6.50;;;6.03;;
4957;SDS011;2494;51.872;9.688;2023-06-24T04:00:45;5.50;;;5.10;;
4957;SDS011;2494;51.872;9.688;2023-06-24T04:03:35;6.50;;;5.90;;
4957;SDS011;2494;51.872;9.688;2023-06-24T04:06:20;6.20;;;5.60;;
4957;SDS011;2494;51.872;9.688;2023-06-24T04:09:06;6.10;;;5.50;;
4957;SDS011;2494;51.872;9.688;2023-06-24T04:11:53;6.10;;;5.70;;
4957;SDS011;2494;51.872;9.688;2023-06-24T04:14:38;10.83;;;7.40;;
4957;SDS011;2494;51.872;9.688;2023-06-24T04:17:23;7.83;;;7.03;;
4957;SDS011;2494;51.872;9.688;2023-06-24T04:20:11;8.07;;;5.13;;
4957;SDS011;2494;51.872;9.688;2023-06-24T04:22:57;6.53;;;3.33;;
4957;SDS011;2494;51.872;9.688;2023-06-24T04:25:43;4.53;;;3.77;;
4957;SDS011;2494;51.872;9.688;2023-06-24T04:28:29;4.20;;;3.90;;
4957;SDS011;2494;51.872;9.688;2023-06-24T04:31:14;6.43;;;3.70;;
4957;SDS011;2494;51.872;9.688;2023-06-24T04:34:00;5.03;;;3.60;;
4957;SDS011;2494;51.872;9.688;2023-06-24T04:36:47;3.37;;;3.17;;
4957;SDS011;2494;51.872;9.688;2023-06-24T04:39:33;5.87;;;3.70;;
4957;SDS011;2494;51.872;9.688;2023-06-24T04:42:18;4.90;;;4.40;;
4957;SDS011;2494;51.872;9.688;2023-06-24T04:45:04;4.33;;;3.93;;
4957;SDS011;2494;51.872;9.688;2023-06-24T04:47:52;5.00;;;4.33;;
4957;SDS011;2494;51.872;9.688;2023-06-24T04:50:37;5.30;;;4.90;;
4957;SDS011;2494;51.872;9.688;2023-06-24T04:53:26;5.63;;;5.10;;
4957;SDS011;2494;51.872;9.688;2023-06-24T04:56:11;4.47;;;4.17;;
4957;SDS011;2494;51.872;9.688;2023-06-24T04:58:57;4.57;;;4.10;;
4957;SDS011;2494;51.872;9.688;2023-06-24T05:01:43;4.67;;;4.17;;
4957;SDS011;2494;51.872;9.688;2023-06-24T05:04:30;6.20;;;4.50;;
4957;SDS011;2494;51.872;9.688;2023-06-24T05:07:16;5.83;;;4.50;;
4957;SDS011;2494;51.872;9.688;2023-06-24T05:10:02;7.40;;;4.90;;
4957;SDS011;2494;51.872;9.688;2023-06-24T05:12:48;4.73;;;4.33;;
4957;SDS011;2494;51.872;9.688;2023-06-24T05:15:33;5.37;;;4.90;;
4957;SDS011;2494;51.872;9.688;2023-06-24T05:18:19;5.90;;;4.87;;
4957;SDS011;2494;51.872;9.688;2023-06-24T05:21:05;5.13;;;4.77;;
4957;SDS011;2494;51.872;9.688;2023-06-24T05:23:51;5.70;;;4.80;;
4957;SDS011;2494;51.872;9.688;2023-06-24T05:26:38;5.33;;;4.93;;
4957;SDS011;2494;51.872;9.688;2023-06-24T05:29:24;5.17;;;4.77;;
4957;SDS011;2494;51.872;9.688;2023-06-24T05:32:09;4.87;;;4.47;;
4957;SDS011;2494;51.872;9.688;2023-06-24T05:34:55;4.60;;;4.30;;
4957;SDS011;2494;51.872;9.688;2023-06-24T05:37:40;6.07;;;4.33;;
4957;SDS011;2494;51.872;9.688;2023-06-24T05:40:26;5.27;;;4.40;;
4957;SDS011;2494;51.872;9.688;2023-06-24T05:43:13;6.27;;;5.17;;
4957;SDS011;2494;51.872;9.688;2023-06-24T05:45:58;4.53;;;4.23;;
4957;SDS011;2494;51.872;9.688;2023-06-24T05:48:44;6.27;;;4.97;;
4957;SDS011;2494;51.872;9.688;2023-06-24T05:51:29;4.93;;;4.50;;
4957;SDS011;2494;51.872;9.688;2023-06-24T05:54:15;4.20;;;3.93;;
4957;SDS011;2494;51.872;9.688;2023-06-24T05:57:00;4.40;;;4.20;;
4957;SDS011;2494;51.872;9.688;2023-06-24T05:59:46;4.60;;;4.33;;
4957;SDS011;2494;51.872;9.688;2023-06-24T06:02:32;4.93;;;4.50;;
4957;SDS011;2494;51.872;9.688;2023-06-24T06:05:18;5.07;;;4.67;;
4957;SDS011;2494;51.872;9.688;2023-06-24T06:08:03;4.13;;;3.83;;
4957;SDS011;2494;51.872;9.688;2023-06-24T06:10:48;4.40;;;4.00;;
4957;SDS011;2494;51.872;9.688;2023-06-24T06:13:34;6.63;;;4.23;;
4957;SDS011;2494;51.872;9.688;2023-06-24T06:16:20;4.10;;;3.80;;
4957;SDS011;2494;51.872;9.688;2023-06-24T06:19:05;4.63;;;4.23;;
4957;SDS011;2494;51.872;9.688;2023-06-24T06:21:51;5.43;;;5.00;;
4957;SDS011;2494;51.872;9.688;2023-06-24T06:24:36;7.40;;;5.20;;
4957;SDS011;2494;51.872;9.688;2023-06-24T06:27:21;5.43;;;5.07;;
4957;SDS011;2494;51.872;9.688;2023-06-24T06:30:07;6.13;;;5.63;;
4957;SDS011;2494;51.872;9.688;2023-06-24T06:32:54;5.30;;;4.97;;
4957;SDS011;2494;51.872;9.688;2023-06-24T06:35:39;4.67;;;3.87;;
4957;SDS011;2494;51.872;9.688;2023-06-24T06:38:25;5.00;;;4.50;;
4957;SDS011;2494;51.872;9.688;2023-06-24T06:41:10;5.37;;;4.87;;
4957;SDS011;2494;51.872;9.688;2023-06-24T06:43:55;4.50;;;4.10;;
4957;SDS011;2494;51.872;9.688;2023-06-24T06:46:41;4.27;;;3.97;;
4957;SDS011;2494;51.872;9.688;2023-06-24T06:49:28;5.77;;;3.97;;
4957;SDS011;2494;51.872;9.688;2023-06-24T06:52:13;3.37;;;3.17;;
4957;SDS011;2494;51.872;9.688;2023-06-24T06:54:58;3.17;;;2.97;;
4957;SDS011;2494;51.872;9.688;2023-06-24T06:57:43;3.40;;;3.10;;
4957;SDS011;2494;51.872;9.688;2023-06-24T07:00:28;5.00;;;3.13;;
4957;SDS011;2494;51.872;9.688;2023-06-24T07:03:13;3.77;;;3.47;;
4957;SDS011;2494;51.872;9.688;2023-06-24T07:06:01;4.20;;;3.73;;
4957;SDS011;2494;51.872;9.688;2023-06-24T07:08:46;3.60;;;3.27;;
4957;SDS011;2494;51.872;9.688;2023-06-24T07:11:32;3.83;;;3.50;;
4957;SDS011;2494;51.872;9.688;2023-06-24T07:14:17;4.57;;;3.10;;
4957;SDS011;2494;51.872;9.688;2023-06-24T07:17:03;3.33;;;3.03;;
4957;SDS011;2494;51.872;9.688;2023-06-24T07:19:48;3.97;;;3.73;;
4957;SDS011;2494;51.872;9.688;2023-06-24T07:22:35;3.23;;;2.93;;
4957;SDS011;2494;51.872;9.688;2023-06-24T07:25:20;8.37;;;3.10;;
4957;SDS011;2494;51.872;9.688;2023-06-24T07:28:06;4.07;;;3.60;;
4957;SDS011;2494;51.872;9.688;2023-06-24T07:30:51;3.33;;;3.13;;
4957;SDS011;2494;51.872;9.688;2023-06-24T07:33:37;3.10;;;2.87;;
4957;SDS011;2494;51.872;9.688;2023-06-24T07:36:22;3.40;;;3.20;;
4957;SDS011;2494;51.872;9.688;2023-06-24T07:39:09;3.93;;;3.73;;
4957;SDS011;2494;51.872;9.688;2023-06-24T07:41:55;3.40;;;3.10;;
4957;SDS011;2494;51.872;9.688;2023-06-24T07:44:40;3.80;;;3.27;;
4957;SDS011;2494;51.872;9.688;2023-06-24T07:47:25;3.93;;;3.40;;
4957;SDS011;2494;51.872;9.688;2023-06-24T07:50:11;3.97;;;3.57;;
4957;SDS011;2494;51.872;9.688;2023-06-24T07:52:56;2.80;;;2.70;;
4957;SDS011;2494;51.872;9.688;2023-06-24T07:55:43;4.17;;;3.63;;
4957;SDS011;2494;51.872;9.688;2023-06-24T07:58:29;3.73;;;3.43;;
4957;SDS011;2494;51.872;9.688;2023-06-24T08:01:13;3.73;;;3.53;;
4957;SDS011;2494;51.872;9.688;2023-06-24T08:03:59;4.90;;;4.00;;
4957;SDS011;2494;51.872;9.688;2023-06-24T08:06:45;3.60;;;3.30;;
4957;SDS011;2494;51.872;9.688;2023-06-24T08:09:30;3.33;;;3.03;;
4957;SDS011;2494;51.872;9.688;2023-06-24T08:12:17;4.63;;;4.03;;
4957;SDS011;2494;51.872;9.688;2023-06-24T08:15:02;3.03;;;2.83;;
4957;SDS011;2494;51.872;9.688;2023-06-24T08:17:50;3.50;;;3.20;;
4957;SDS011;2494;51.872;9.688;2023-06-24T08:20:37;3.93;;;3.67;;
4957;SDS011;2494;51.872;9.688;2023-06-24T08:23:22;5.10;;;4.00;;
4957;SDS011;2494;51.872;9.688;2023-06-24T08:26:07;4.40;;;3.23;;
4957;SDS011;2494;51.872;9.688;2023-06-24T08:28:55;3.40;;;3.10;;
4957;SDS011;2494;51.872;9.688;2023-06-24T08:31:43;3.10;;;2.90;;
4957;SDS011;2494;51.872;9.688;2023-06-24T08:34:28;4.67;;;2.80;;
4957;SDS011;2494;51.872;9.688;2023-06-24T08:37:13;3.40;;;3.20;;
4957;SDS011;2494;51.872;9.688;2023-06-24T08:39:59;2.67;;;2.43;;
4957;SDS011;2494;51.872;9.688;2023-06-24T08:42:44;2.83;;;2.73;;
4957;SDS011;2494;51.872;9.688;2023-06-24T08:45:31;2.67;;;2.47;;
4957;SDS011;2494;51.872;9.688;2023-06-24T08:48:16;2.70;;;2.37;;
4957;SDS011;2494;51.872;9.688;2023-06-24T08:51:02;3.70;;;2.43;;
4957;SDS011;2494;51.872;9.688;2023-06-24T08:53:47;3.30;;;3.00;;
4957;SDS011;2494;51.872;9.688;2023-06-24T08:56:33;3.03;;;2.83;;
4957;SDS011;2494;51.872;9.688;2023-06-24T08:59:18;2.80;;;2.60;;
4957;SDS011;2494;51.872;9.688;2023-06-24T09:02:05;3.60;;;3.40;;
4957;SDS011;2494;51.872;9.688;2023-06-24T09:04:51;6.03;;;3.70;;
4957;SDS011;2494;51.872;9.688;2023-06-24T09:07:36;3.43;;;3.13;;
4957;SDS011;2494;51.872;9.688;2023-06-24T09:10:28;3.20;;;3.00;;
4957;SDS011;2494;51.872;9.688;2023-06-24T09:13:15;4.27;;;4.03;;
4957;SDS011;2494;51.872;9.688;2023-06-24T09:16:02;3.73;;;3.53;;
4957;SDS011;2494;51.872;9.688;2023-06-24T09:18:56;3.47;;;3.17;;
4957;SDS011;2494;51.872;9.688;2023-06-24T09:21:42;3.37;;;3.17;;
4957;SDS011;2494;51.872;9.688;2023-06-24T09:24:30;3.57;;;3.30;;
4957;SDS011;2494;51.872;9.688;2023-06-24T09:27:16;4.70;;;3.07;;
4957;SDS011;2494;51.872;9.688;2023-06-24T09:30:12;3.47;;;3.27;;
4957;SDS011;2494;51.872;9.688;2023-06-24T09:33:01;3.33;;;3.03;;
4957;SDS011;2494;51.872;9.688;2023-06-24T09:35:48;2.80;;;2.60;;
4957;SDS011;2494;51.872;9.688;2023-06-24T09:38:34;3.60;;;3.40;;
4957;SDS011;2494;51.872;9.688;2023-06-24T09:41:20;4.33;;;2.93;;
4957;SDS011;2494;51.872;9.688;2023-06-24T09:44:07;3.27;;;2.97;;
4957;SDS011;2494;51.872;9.688;2023-06-24T09:46:53;3.80;;;3.00;;
4957;SDS011;2494;51.872;9.688;2023-06-24T09:49:38;3.83;;;3.17;;
4957;SDS011;2494;51.872;9.688;2023-06-24T09:52:24;3.23;;;3.03;;
4957;SDS011;2494;51.872;9.688;2023-06-24T09:55:11;3.43;;;3.23;;
4957;SDS011;2494;51.872;9.688;2023-06-24T09:57:57;3.60;;;3.30;;
4957;SDS011;2494;51.872;9.688;2023-06-24T10:00:43;4.80;;;4.50;;
4957;SDS011;2494;51.872;9.688;2023-06-24T10:03:28;3.23;;;3.03;;
4957;SDS011;2494;51.872;9.688;2023-06-24T10:06:13;2.93;;;2.73;;
4957;SDS011;2494;51.872;9.688;2023-06-24T10:09:00;3.73;;;3.43;;
4957;SDS011;2494;51.872;9.688;2023-06-24T10:11:46;4.10;;;3.90;;
4957;SDS011;2494;51.872;9.688;2023-06-24T10:14:31;3.43;;;3.10;;
4957;SDS011;2494;51.872;9.688;2023-06-24T10:17:17;4.30;;;4.00;;
4957;SDS011;2494;51.872;9.688;2023-06-24T10:20:03;4.40;;;3.80;;
4957;SDS011;2494;51.872;9.688;2023-06-24T10:22:49;4.67;;;3.87;;
4957;SDS011;2494;51.872;9.688;2023-06-24T10:25:37;4.33;;;4.07;;
4957;SDS011;2494;51.872;9.688;2023-06-24T10:28:22;5.57;;;4.20;;
4957;SDS011;2494;51.872;9.688;2023-06-24T10:31:08;4.70;;;4.30;;
4957;SDS011;2494;51.872;9.688;2023-06-24T10:33:53;4.67;;;4.20;;
4957;SDS011;2494;51.872;9.688;2023-06-24T10:36:38;3.97;;;3.77;;
4957;SDS011;2494;51.872;9.688;2023-06-24T10:39:37;4.97;;;3.23;;
4957;SDS011;2494;51.872;9.688;2023-06-24T10:42:31;3.20;;;3.00;;
4957;SDS011;2494;51.872;9.688;2023-06-24T10:45:17;3.70;;;3.50;;
4957;SDS011;2494;51.872;9.688;2023-06-24T10:48:03;3.50;;;3.30;;
4957;SDS011;2494;51.872;9.688;2023-06-24T10:50:48;4.30;;;4.00;;
4957;SDS011;2494;51.872;9.688;2023-06-24T10:53:34;4.00;;;3.70;;
4957;SDS011;2494;51.872;9.688;2023-06-24T10:56:20;4.23;;;3.70;;
4957;SDS011;2494;51.872;9.688;2023-06-24T10:59:06;3.50;;;3.30;;
4957;SDS011;2494;51.872;9.688;2023-06-24T11:01:52;3.40;;;3.10;;
4957;SDS011;2494;51.872;9.688;2023-06-24T11:04:43;3.80;;;3.50;;
4957;SDS011;2494;51.872;9.688;2023-06-24T11:07:29;3.87;;;3.43;;
4957;SDS011;2494;51.872;9.688;2023-06-24T11:10:15;4.90;;;3.60;;
4957;SDS011;2494;51.872;9.688;2023-06-24T11:13:07;5.13;;;3.93;;
4957;SDS011;2494;51.872;9.688;2023-06-24T11:15:54;3.53;;;3.30;;
4957;SDS011;2494;51.872;9.688;2023-06-24T11:18:45;4.73;;;4.00;;
4957;SDS011;2494;51.872;9.688;2023-06-24T11:21:30;4.33;;;3.87;;
4957;SDS011;2494;51.872;9.688;2023-06-24T11:24:16;5.90;;;4.60;;
4957;SDS011;2494;51.872;9.688;2023-06-24T11:27:01;5.17;;;4.00;;
4957;SDS011;2494;51.872;9.688;2023-06-24T11:29:51;3.80;;;3.50;;
4957;SDS011;2494;51.872;9.688;2023-06-24T11:32:37;5.00;;;3.73;;
4957;SDS011;2494;51.872;9.688;2023-06-24T11:35:23;4.37;;;4.07;;
4957;SDS011;2494;51.872;9.688;2023-06-24T11:38:08;4.70;;;4.13;;
4957;SDS011;2494;51.872;9.688;2023-06-24T11:40:57;4.20;;;3.90;;
4957;SDS011;2494;51.872;9.688;2023-06-24T11:43:43;4.37;;;4.00;;
4957;SDS011;2494;51.872;9.688;2023-06-24T11:46:29;4.23;;;3.97;;
4957;SDS011;2494;51.872;9.688;2023-06-24T11:49:19;4.93;;;3.50;;
4957;SDS011;2494;51.872;9.688;2023-06-24T11:52:04;3.93;;;3.67;;
4957;SDS011;2494;51.872;9.688;2023-06-24T11:54:51;4.37;;;3.97;;
4957;SDS011;2494;51.872;9.688;2023-06-24T11:57:49;4.33;;;3.97;;
4957;SDS011;2494;51.872;9.688;2023-06-24T12:00:35;4.80;;;4.50;;
4957;SDS011;2494;51.872;9.688;2023-06-24T12:03:22;3.93;;;3.60;;
4957;SDS011;2494;51.872;9.688;2023-06-24T12:06:10;5.33;;;3.80;;
4957;SDS011;2494;51.872;9.688;2023-06-24T12:09:05;4.00;;;3.70;;
4957;SDS011;2494;51.872;9.688;2023-06-24T12:11:50;4.03;;;3.73;;
4957;SDS011;2494;51.872;9.688;2023-06-24T12:14:35;4.20;;;4.00;;
4957;SDS011;2494;51.872;9.688;2023-06-24T12:17:21;3.97;;;3.60;;
4957;SDS011;2494;51.872;9.688;2023-06-24T12:20:06;4.80;;;4.50;;
4957;SDS011;2494;51.872;9.688;2023-06-24T12:22:54;4.40;;;4.00;;
4957;SDS011;2494;51.872;9.688;2023-06-24T12:25:39;4.30;;;3.90;;
4957;SDS011;2494;51.872;9.688;2023-06-24T12:28:25;4.23;;;3.93;;
4957;SDS011;2494;51.872;9.688;2023-06-24T12:31:10;4.27;;;4.00;;
4957;SDS011;2494;51.872;9.688;2023-06-24T12:33:56;4.43;;;4.03;;
4957;SDS011;2494;51.872;9.688;2023-06-24T12:36:41;4.57;;;4.10;;
4957;SDS011;2494;51.872;9.688;2023-06-24T12:39:27;3.93;;;3.70;;
4957;SDS011;2494;51.872;9.688;2023-06-24T12:42:13;5.87;;;4.27;;
4957;SDS011;2494;51.872;9.688;2023-06-24T12:44:58;4.27;;;3.87;;
4957;SDS011;2494;51.872;9.688;2023-06-24T12:47:43;3.63;;;3.43;;
4957;SDS011;2494;51.872;9.688;2023-06-24T12:50:29;6.30;;;3.70;;
4957;SDS011;2494;51.872;9.688;2023-06-24T12:53:15;4.00;;;3.80;;
4957;SDS011;2494;51.872;9.688;2023-06-24T12:56:01;3.73;;;3.53;;
4957;SDS011;2494;51.872;9.688;2023-06-24T12:58:47;4.73;;;4.33;;
4957;SDS011;2494;51.872;9.688;2023-06-24T13:01:32;4.40;;;4.10;;
4957;SDS011;2494;51.872;9.688;2023-06-24T13:04:17;3.60;;;3.30;;
4957;SDS011;2494;51.872;9.688;2023-06-24T13:07:04;3.97;;;3.77;;
4957;SDS011;2494;51.872;9.688;2023-06-24T13:09:49;3.43;;;3.23;;
4957;SDS011;2494;51.872;9.688;2023-06-24T13:12:35;4.73;;;4.27;;
4957;SDS011;2494;51.872;9.688;2023-06-24T13:15:21;3.73;;;3.13;;
4957;SDS011;2494;51.872;9.688;2023-06-24T13:18:06;4.27;;;3.87;;
4957;SDS011;2494;51.872;9.688;2023-06-24T13:20:51;4.10;;;3.30;;
4957;SDS011;2494;51.872;9.688;2023-06-24T13:23:37;3.23;;;3.03;;
4957;SDS011;2494;51.872;9.688;2023-06-24T13:26:22;4.10;;;3.83;;
4957;SDS011;2494;51.872;9.688;2023-06-24T13:29:09;3.77;;;3.47;;
4957;SDS011;2494;51.872;9.688;2023-06-24T13:31:54;3.60;;;3.40;;
4957;SDS011;2494;51.872;9.688;2023-06-24T13:34:39;5.70;;;4.80;;
4957;SDS011;2494;51.872;9.688;2023-06-24T13:37:25;4.63;;;4.23;;
4957;SDS011;2494;51.872;9.688;2023-06-24T13:40:10;4.33;;;4.03;;
4957;SDS011;2494;51.872;9.688;2023-06-24T13:42:56;5.60;;;4.27;;
4957;SDS011;2494;51.872;9.688;2023-06-24T13:45:42;7.23;;;4.30;;
4957;SDS011;2494;51.872;9.688;2023-06-24T13:48:27;4.00;;;3.80;;
4957;SDS011;2494;51.872;9.688;2023-06-24T13:51:13;3.90;;;3.70;;
4957;SDS011;2494;51.872;9.688;2023-06-24T13:53:58;5.20;;;4.80;;
4957;SDS011;2494;51.872;9.688;2023-06-24T13:56:43;5.10;;;4.70;;
4957;SDS011;2494;51.872;9.688;2023-06-24T13:59:28;4.37;;;4.07;;
4957;SDS011;2494;51.872;9.688;2023-06-24T14:02:15;4.57;;;4.23;;
4957;SDS011;2494;51.872;9.688;2023-06-24T14:05:00;4.47;;;4.17;;
4957;SDS011;2494;51.872;9.688;2023-06-24T14:07:45;5.20;;;4.80;;
4957;SDS011;2494;51.872;9.688;2023-06-24T14:10:30;5.17;;;4.63;;
4957;SDS011;2494;51.872;9.688;2023-06-24T14:13:15;5.20;;;4.70;;
4957;SDS011;2494;51.872;9.688;2023-06-24T14:16:00;4.97;;;4.63;;
4957;SDS011;2494;51.872;9.688;2023-06-24T14:18:46;4.77;;;4.33;;
4957;SDS011;2494;51.872;9.688;2023-06-24T14:21:31;4.17;;;3.97;;
4957;SDS011;2494;51.872;9.688;2023-06-24T14:24:17;4.93;;;4.57;;
4957;SDS011;2494;51.872;9.688;2023-06-24T14:27:03;4.77;;;4.00;;
4957;SDS011;2494;51.872;9.688;2023-06-24T14:29:48;4.30;;;4.00;;
4957;SDS011;2494;51.872;9.688;2023-06-24T14:32:33;4.50;;;4.10;;
4957;SDS011;2494;51.872;9.688;2023-06-24T14:35:19;4.53;;;4.33;;
4957;SDS011;2494;51.872;9.688;2023-06-24T14:38:05;4.63;;;4.27;;
4957;SDS011;2494;51.872;9.688;2023-06-24T14:40:50;5.10;;;4.80;;
4957;SDS011;2494;51.872;9.688;2023-06-24T14:43:36;4.97;;;4.43;;
4957;SDS011;2494;51.872;9.688;2023-06-24T14:46:22;4.47;;;4.17;;
4957;SDS011;2494;51.872;9.688;2023-06-24T14:49:07;4.80;;;4.50;;
4957;SDS011;2494;51.872;9.688;2023-06-24T14:51:53;4.73;;;4.27;;
4957;SDS011;2494;51.872;9.688;2023-06-24T14:54:39;4.63;;;4.30;;
4957;SDS011;2494;51.872;9.688;2023-06-24T14:57:24;4.60;;;4.30;;
4957;SDS011;2494;51.872;9.688;2023-06-24T15:00:09;5.23;;;4.77;;
4957;SDS011;2494;51.872;9.688;2023-06-24T15:02:55;4.57;;;4.27;;
4957;SDS011;2494;51.872;9.688;2023-06-24T15:05:41;4.43;;;4.13;;
4957;SDS011;2494;51.872;9.688;2023-06-24T15:08:27;3.90;;;3.70;;
4957;SDS011;2494;51.872;9.688;2023-06-24T15:11:13;4.87;;;4.47;;
4957;SDS011;2494;51.872;9.688;2023-06-24T15:13:58;4.33;;;4.13;;
4957;SDS011;2494;51.872;9.688;2023-06-24T15:16:43;4.63;;;4.33;;
4957;SDS011;2494;51.872;9.688;2023-06-24T15:19:28;4.87;;;4.57;;
4957;SDS011;2494;51.872;9.688;2023-06-24T15:22:13;4.70;;;4.40;;
4957;SDS011;2494;51.872;9.688;2023-06-24T15:24:59;4.77;;;4.30;;
4957;SDS011;2494;51.872;9.688;2023-06-24T15:27:45;5.17;;;4.77;;
4957;SDS011;2494;51.872;9.688;2023-06-24T15:30:30;4.60;;;4.30;;
4957;SDS011;2494;51.872;9.688;2023-06-24T15:33:15;4.00;;;3.70;;
4957;SDS011;2494;51.872;9.688;2023-06-24T15:36:01;4.20;;;4.00;;
4957;SDS011;2494;51.872;9.688;2023-06-24T15:38:47;5.43;;;4.80;;
4957;SDS011;2494;51.872;9.688;2023-06-24T15:41:33;5.40;;;4.90;;
4957;SDS011;2494;51.872;9.688;2023-06-24T15:44:20;4.90;;;4.50;;
4957;SDS011;2494;51.872;9.688;2023-06-24T15:47:05;4.03;;;3.83;;
4957;SDS011;2494;51.872;9.688;2023-06-24T15:49:51;4.03;;;3.70;;
4957;SDS011;2494;51.872;9.688;2023-06-24T15:52:36;5.77;;;5.33;;
4957;SDS011;2494;51.872;9.688;2023-06-24T15:55:22;5.23;;;4.83;;
4957;SDS011;2494;51.872;9.688;2023-06-24T15:58:08;5.03;;;4.63;;
4957;SDS011;2494;51.872;9.688;2023-06-24T16:00:54;4.80;;;4.50;;
4957;SDS011;2494;51.872;9.688;2023-06-24T16:03:39;5.00;;;4.80;;
4957;SDS011;2494;51.872;9.688;2023-06-24T16:06:24;4.90;;;4.40;;
4957;SDS011;2494;51.872;9.688;2023-06-24T16:09:09;5.27;;;4.97;;
4957;SDS011;2494;51.872;9.688;2023-06-24T16:11:55;5.30;;;4.90;;
4957;SDS011;2494;51.872;9.688;2023-06-24T16:14:42;5.40;;;5.00;;
4957;SDS011;2494;51.872;9.688;2023-06-24T16:17:27;4.87;;;4.47;;
4957;SDS011;2494;51.872;9.688;2023-06-24T16:20:12;5.40;;;5.00;;
4957;SDS011;2494;51.872;9.688;2023-06-24T16:23:00;4.20;;;4.00;;
4957;SDS011;2494;51.872;9.688;2023-06-24T16:25:47;4.47;;;4.27;;
4957;SDS011;2494;51.872;9.688;2023-06-24T16:28:32;5.37;;;5.07;;
4957;SDS011;2494;51.872;9.688;2023-06-24T16:31:19;5.40;;;5.00;;
4957;SDS011;2494;51.872;9.688;2023-06-24T16:34:04;5.33;;;5.03;;
4957;SDS011;2494;51.872;9.688;2023-06-24T16:36:51;5.30;;;5.00;;
4957;SDS011;2494;51.872;9.688;2023-06-24T16:39:36;5.53;;;5.07;;
4957;SDS011;2494;51.872;9.688;2023-06-24T16:42:22;4.70;;;4.30;;
4957;SDS011;2494;51.872;9.688;2023-06-24T16:45:07;5.13;;;4.80;;
4957;SDS011;2494;51.872;9.688;2023-06-24T16:47:55;4.30;;;4.00;;
4957;SDS011;2494;51.872;9.688;2023-06-24T16:50:40;5.40;;;5.00;;
4957;SDS011;2494;51.872;9.688;2023-06-24T16:53:25;5.10;;;4.80;;
4957;SDS011;2494;51.872;9.688;2023-06-24T16:56:10;4.90;;;4.50;;
4957;SDS011;2494;51.872;9.688;2023-06-24T16:58:55;5.30;;;5.00;;
4957;SDS011;2494;51.872;9.688;2023-06-24T17:01:40;5.07;;;4.67;;
4957;SDS011;2494;51.872;9.688;2023-06-24T17:04:27;4.60;;;4.20;;
4957;SDS011;2494;51.872;9.688;2023-06-24T17:07:12;5.63;;;5.00;;
4957;SDS011;2494;51.872;9.688;2023-06-24T17:09:57;5.77;;;5.37;;
4957;SDS011;2494;51.872;9.688;2023-06-24T17:12:42;5.40;;;4.90;;
4957;SDS011;2494;51.872;9.688;2023-06-24T17:15:27;5.90;;;5.50;;
4957;SDS011;2494;51.872;9.688;2023-06-24T17:18:13;5.73;;;5.33;;
4957;SDS011;2494;51.872;9.688;2023-06-24T17:21:00;5.10;;;4.47;;